Moberly, Missouri
Current Conditions -  °F | °C
As of 11:55 AM on Friday 24 Oct 2014 (Local Time) from KVER Reporting Station
Overcast Overcast  
Wind Chill: 67°   Ceiling: 4500
Heat Index: 67°   Visibility: 10mi
Dew Point: 60°   Wind: 9mph
Humidity: 79%   Direction: 170°S
Pressure: 30.08"   Gusts: NA
Location:  39.43°N, 92.43°W
Report Text: KVER 241655Z AUTO 17008KT 10SM OVC045 19/16 A3008 RMK AO2 T01940157
Loading
Personal Weather Stations






























Interactive Weather Map
Tropical Storm Tracking
New forecast layout! Learn more

10-Day Weather Forecast

Advertisements
Track Severe Weather on mobile